weather.gov     
National Weather Service

Terminal Aerodrome Forecast
NWS Homepage
This page is being discontinued on March 12, 2014.
The same data is available at this site. Please update your bookmarks.
Thank you, and we apologize for the inconvenience.
Please send an email to SR-SRH.Webmaster@noaa.gov with any concerns.


Current Version
Previous Version:    01  02  03  04  05  06  07  08  09  10  11  12  13  14  15  16  17  18  19  20  21  22  23  24  25  26  27  28  29  30  
   31  32  33  34  35  36  37  38  39  
[Printable]
376
FTUS42 KGSP 211741 AAB
TAFAND
TAF AMD
KAND 211741Z 2118/2218 07006KT P6SM FEW017 OVC035
     FM220000 07006KT P6SM OVC027
     FM220200 07007KT P6SM -RA OVC016
     FM220500 06008KT P6SM -RA OVC008
     FM220900 05008KT P6SM -RADZ OVC006
     FM221500 06008KT P6SM OVC007=




376
FTUS42 KGSP 211741 AAB
TAFAND
TAF AMD
KAND 211741Z 2118/2218 07006KT P6SM FEW017 OVC035
     FM220000 07006KT P6SM OVC027
     FM220200 07007KT P6SM -RA OVC016
     FM220500 06008KT P6SM -RA OVC008
     FM220900 05008KT P6SM -RADZ OVC006
     FM221500 06008KT P6SM OVC007=


U.S. Dept. of Commerce
NOAA National Weather Service
1325 East West Highway
Silver Spring, MD 20910
E-mail: w-nws.webmaster@noaa.gov
Page last modified: May 16, 2007
NATIONAL WEATHER SERVICE: for Safety, for Work, for Fun - FOR LIFE